sensor_id;sensor_type;location;lat;lon;timestamp;pressure;altitude;pressure_sealevel;temperature;humidity
79612;BME280;69094;48.154;11.536;2023-04-29T00:00:17;95225.56;;;9.18;91.64
79612;BME280;69094;48.154;11.536;2023-04-29T00:02:42;95228.28;;;9.18;91.33
79612;BME280;69094;48.154;11.536;2023-04-29T00:05:09;95221.88;;;9.23;91.26
79612;BME280;69094;48.154;11.536;2023-04-29T00:07:34;95224.59;;;9.23;91.43
79612;BME280;69094;48.154;11.536;2023-04-29T00:10:00;95222.53;;;9.20;91.50
79612;BME280;69094;48.154;11.536;2023-04-29T00:12:26;95226.53;;;9.22;91.30
79612;BME280;69094;48.154;11.536;2023-04-29T00:14:52;95212.47;;;9.12;91.60
79612;BME280;69094;48.154;11.536;2023-04-29T00:17:18;95224.13;;;9.21;91.42
79612;BME280;69094;48.154;11.536;2023-04-29T00:19:43;95221.88;;;9.23;91.59
79612;BME280;69094;48.154;11.536;2023-04-29T00:22:09;95218.50;;;9.26;91.20
79612;BME280;69094;48.154;11.536;2023-04-29T00:24:38;95215.50;;;9.19;91.51
79612;BME280;69094;48.154;11.536;2023-04-29T00:27:03;95218.38;;;9.22;91.40
79612;BME280;69094;48.154;11.536;2023-04-29T00:29:30;95208.16;;;9.19;91.56
79612;BME280;69094;48.154;11.536;2023-04-29T00:31:55;95208.13;;;9.28;91.32
79612;BME280;69094;48.154;11.536;2023-04-29T00:34:21;95210.53;;;9.30;91.47
79612;BME280;69094;48.154;11.536;2023-04-29T00:36:47;95222.31;;;9.34;91.58
79612;BME280;69094;48.154;11.536;2023-04-29T00:39:12;95208.41;;;9.35;91.38
79612;BME280;69094;48.154;11.536;2023-04-29T00:41:38;95220.50;;;9.46;90.98
79612;BME280;69094;48.154;11.536;2023-04-29T00:44:03;95225.31;;;9.49;90.92
79612;BME280;69094;48.154;11.536;2023-04-29T00:46:29;95213.00;;;9.52;91.08
79612;BME280;69094;48.154;11.536;2023-04-29T00:48:54;95213.00;;;9.52;90.84
79612;BME280;69094;48.154;11.536;2023-04-29T00:51:20;95219.34;;;9.56;90.97
79612;BME280;69094;48.154;11.536;2023-04-29T00:53:46;95205.75;;;9.56;91.11
79612;BME280;69094;48.154;11.536;2023-04-29T00:56:11;95202.25;;;9.56;90.94
79612;BME280;69094;48.154;11.536;2023-04-29T00:58:39;95205.44;;;9.58;91.24
79612;BME280;69094;48.154;11.536;2023-04-29T01:01:04;95186.00;;;9.47;91.09
79612;BME280;69094;48.154;11.536;2023-04-29T01:03:30;95206.59;;;9.57;91.31
79612;BME280;69094;48.154;11.536;2023-04-29T01:06:16;95213.28;;;9.59;91.31
79612;BME280;69094;48.154;11.536;2023-04-29T01:09:02;95213.13;;;9.56;91.64
79612;BME280;69094;48.154;11.536;2023-04-29T01:11:52;95207.97;;;9.63;91.43
79612;BME280;69094;48.154;11.536;2023-04-29T01:14:20;95207.84;;;9.59;91.47
79612;BME280;69094;48.154;11.536;2023-04-29T01:16:55;95205.75;;;9.56;91.67
79612;BME280;69094;48.154;11.536;2023-04-29T01:22:07;95202.44;;;9.51;91.87
79612;BME280;69094;48.154;11.536;2023-04-29T01:24:32;95206.91;;;9.55;91.48
79612;BME280;69094;48.154;11.536;2023-04-29T01:27:13;95209.28;;;9.57;91.69
79612;BME280;69094;48.154;11.536;2023-04-29T01:29:50;95205.91;;;9.60;91.72
79612;BME280;69094;48.154;11.536;2023-04-29T01:32:33;95193.78;;;9.57;91.63
79612;BME280;69094;48.154;11.536;2023-04-29T01:37:55;95202.53;;;9.63;91.82
79612;BME280;69094;48.154;11.536;2023-04-29T01:40:25;95198.28;;;9.53;92.08
79612;BME280;69094;48.154;11.536;2023-04-29T01:43:02;95204.78;;;9.61;91.89
79612;BME280;69094;48.154;11.536;2023-04-29T01:45:29;95205.72;;;9.65;91.61
79612;BME280;69094;48.154;11.536;2023-04-29T01:47:56;95209.44;;;9.60;91.85
79612;BME280;69094;48.154;11.536;2023-04-29T01:50:23;95208.44;;;9.65;91.77
79612;BME280;69094;48.154;11.536;2023-04-29T01:52:49;95204.94;;;9.64;91.79
79612;BME280;69094;48.154;11.536;2023-04-29T01:55:14;95191.34;;;9.64;91.90
79612;BME280;69094;48.154;11.536;2023-04-29T01:57:40;95201.88;;;9.66;91.88
79612;BME280;69094;48.154;11.536;2023-04-29T02:00:06;95196.78;;;9.64;92.01
79612;BME280;69094;48.154;11.536;2023-04-29T02:02:33;95199.91;;;9.75;91.58
79612;BME280;69094;48.154;11.536;2023-04-29T02:04:58;95198.78;;;9.76;91.75
79612;BME280;69094;48.154;11.536;2023-04-29T02:07:23;95200.69;;;9.84;91.65
79612;BME280;69094;48.154;11.536;2023-04-29T02:09:49;95201.09;;;9.95;91.36
79612;BME280;69094;48.154;11.536;2023-04-29T02:12:15;95202.63;;;10.05;91.22
79612;BME280;69094;48.154;11.536;2023-04-29T02:14:41;95201.94;;;10.08;91.13
79612;BME280;69094;48.154;11.536;2023-04-29T02:17:06;95190.16;;;10.04;91.01
79612;BME280;69094;48.154;11.536;2023-04-29T02:19:31;95200.97;;;10.12;90.63
79612;BME280;69094;48.154;11.536;2023-04-29T02:21:57;95202.09;;;10.11;90.97
79612;BME280;69094;48.154;11.536;2023-04-29T02:24:22;95204.63;;;10.17;90.94
79612;BME280;69094;48.154;11.536;2023-04-29T02:26:47;95204.28;;;10.18;90.89
79612;BME280;69094;48.154;11.536;2023-04-29T02:29:13;95192.13;;;10.16;91.31
79612;BME280;69094;48.154;11.536;2023-04-29T02:31:38;95207.94;;;10.22;90.58
79612;BME280;69094;48.154;11.536;2023-04-29T02:34:04;95212.06;;;10.28;90.38
79612;BME280;69094;48.154;11.536;2023-04-29T02:36:29;95202.81;;;10.29;90.63
79612;BME280;69094;48.154;11.536;2023-04-29T02:38:56;95201.50;;;10.27;90.75
79612;BME280;69094;48.154;11.536;2023-04-29T02:41:21;95201.81;;;10.25;90.46
79612;BME280;69094;48.154;11.536;2023-04-29T02:43:47;95195.91;;;10.23;90.57
79612;BME280;69094;48.154;11.536;2023-04-29T02:46:15;95201.19;;;10.28;90.96
79612;BME280;69094;48.154;11.536;2023-04-29T02:48:41;95207.75;;;10.27;90.79
79612;BME280;69094;48.154;11.536;2023-04-29T02:51:06;95202.81;;;10.29;90.69
79612;BME280;69094;48.154;11.536;2023-04-29T02:53:32;95209.19;;;10.33;90.62
79612;BME280;69094;48.154;11.536;2023-04-29T02:55:57;95208.97;;;10.39;90.53
79612;BME280;69094;48.154;11.536;2023-04-29T02:58:22;95201.47;;;10.35;90.41
79612;BME280;69094;48.154;11.536;2023-04-29T03:00:48;95209.75;;;10.39;90.37
79612;BME280;69094;48.154;11.536;2023-04-29T03:03:13;95215.53;;;10.38;91.14
79612;BME280;69094;48.154;11.536;2023-04-29T03:05:39;95206.69;;;10.41;90.80
79612;BME280;69094;48.154;11.536;2023-04-29T03:08:04;95211.81;;;10.42;90.54
79612;BME280;69094;48.154;11.536;2023-04-29T03:10:30;95213.22;;;10.48;90.25
79612;BME280;69094;48.154;11.536;2023-04-29T03:12:55;95216.59;;;10.45;90.49
79612;BME280;69094;48.154;11.536;2023-04-29T03:15:21;95219.31;;;10.45;90.40
79612;BME280;69094;48.154;11.536;2023-04-29T03:17:46;95213.41;;;10.43;90.72
79612;BME280;69094;48.154;11.536;2023-04-29T03:20:12;95216.78;;;10.40;90.42
79612;BME280;69094;48.154;11.536;2023-04-29T03:22:37;95214.75;;;10.37;90.42
79612;BME280;69094;48.154;11.536;2023-04-29T03:25:03;95207.44;;;10.29;91.12
79612;BME280;69094;48.154;11.536;2023-04-29T03:27:29;95211.59;;;10.26;90.94
79612;BME280;69094;48.154;11.536;2023-04-29T03:29:54;95208.06;;;10.26;91.16
79612;BME280;69094;48.154;11.536;2023-04-29T03:32:20;95219.75;;;10.26;91.44
79612;BME280;69094;48.154;11.536;2023-04-29T03:34:45;95212.25;;;10.23;91.11
79612;BME280;69094;48.154;11.536;2023-04-29T03:37:11;95211.91;;;10.25;91.58
79612;BME280;69094;48.154;11.536;2023-04-29T03:39:36;95210.78;;;10.26;91.99
79612;BME280;69094;48.154;11.536;2023-04-29T03:42:02;95213.50;;;10.26;91.37
79612;BME280;69094;48.154;11.536;2023-04-29T03:44:28;95206.81;;;10.23;91.17
79612;BME280;69094;48.154;11.536;2023-04-29T03:46:54;95218.31;;;10.29;91.03
79612;BME280;69094;48.154;11.536;2023-04-29T03:49:19;95210.34;;;10.24;91.19
79612;BME280;69094;48.154;11.536;2023-04-29T03:51:45;95211.13;;;10.24;91.40
79612;BME280;69094;48.154;11.536;2023-04-29T03:54:11;95218.16;;;10.25;91.05
79612;BME280;69094;48.154;11.536;2023-04-29T03:56:37;95217.69;;;10.23;91.10
79612;BME280;69094;48.154;11.536;2023-04-29T03:59:02;95212.72;;;10.25;90.98
79612;BME280;69094;48.154;11.536;2023-04-29T04:01:27;95214.97;;;10.23;91.39
79612;BME280;69094;48.154;11.536;2023-04-29T04:03:53;95219.59;;;10.23;91.42
79612;BME280;69094;48.154;11.536;2023-04-29T04:06:18;95226.19;;;10.22;91.64
79612;BME280;69094;48.154;11.536;2023-04-29T04:08:44;95226.97;;;10.22;91.69
79612;BME280;69094;48.154;11.536;2023-04-29T04:11:09;95224.72;;;10.24;91.46
79612;BME280;69094;48.154;11.536;2023-04-29T04:13:35;95229.03;;;10.25;91.56
79612;BME280;69094;48.154;11.536;2023-04-29T04:16:01;95217.22;;;10.21;91.20
79612;BME280;69094;48.154;11.536;2023-04-29T04:18:27;95224.72;;;10.24;91.54
79612;BME280;69094;48.154;11.536;2023-04-29T04:20:52;95227.59;;;10.28;91.28
79612;BME280;69094;48.154;11.536;2023-04-29T04:23:17;95228.38;;;10.28;91.32
79612;BME280;69094;48.154;11.536;2023-04-29T04:25:47;95233.97;;;10.32;91.39
79612;BME280;69094;48.154;11.536;2023-04-29T04:28:12;95229.00;;;10.34;91.10
79612;BME280;69094;48.154;11.536;2023-04-29T04:30:38;95241.34;;;10.31;91.02
79612;BME280;69094;48.154;11.536;2023-04-29T04:33:03;95238.44;;;10.37;91.34
79612;BME280;69094;48.154;11.536;2023-04-29T04:35:28;95237.28;;;10.38;91.01
79612;BME280;69094;48.154;11.536;2023-04-29T04:37:54;95236.75;;;10.44;90.79
79612;BME280;69094;48.154;11.536;2023-04-29T04:40:19;95239.28;;;10.49;90.38
79612;BME280;69094;48.154;11.536;2023-04-29T04:42:45;95235.44;;;10.50;90.64
79612;BME280;69094;48.154;11.536;2023-04-29T04:45:10;95243.53;;;10.59;90.47
79612;BME280;69094;48.154;11.536;2023-04-29T04:47:36;95244.91;;;10.65;90.59
79612;BME280;69094;48.154;11.536;2023-04-29T04:50:02;95238.47;;;10.70;89.71
79612;BME280;69094;48.154;11.536;2023-04-29T04:52:28;95250.41;;;10.77;90.07
79612;BME280;69094;48.154;11.536;2023-04-29T04:54:54;95250.47;;;10.90;89.02
79612;BME280;69094;48.154;11.536;2023-04-29T04:57:19;95248.88;;;10.89;89.05
79612;BME280;69094;48.154;11.536;2023-04-29T04:59:45;95250.25;;;10.95;89.10
79612;BME280;69094;48.154;11.536;2023-04-29T05:02:10;95251.19;;;10.99;89.31
79612;BME280;69094;48.154;11.536;2023-04-29T05:04:35;95253.22;;;11.02;88.78
79612;BME280;69094;48.154;11.536;2023-04-29T05:07:01;95240.41;;;11.03;89.12
79612;BME280;69094;48.154;11.536;2023-04-29T05:09:26;95252.22;;;11.07;88.57
79612;BME280;69094;48.154;11.536;2023-04-29T05:11:52;95251.47;;;11.18;88.41
79612;BME280;69094;48.154;11.536;2023-04-29T05:14:18;95252.84;;;11.25;88.25
79612;BME280;69094;48.154;11.536;2023-04-29T05:16:43;95255.59;;;11.37;88.01
79612;BME280;69094;48.154;11.536;2023-04-29T05:19:10;95258.47;;;11.40;87.42
79612;BME280;69094;48.154;11.536;2023-04-29T05:21:35;95260.84;;;11.42;87.68
79612;BME280;69094;48.154;11.536;2023-04-29T05:24:01;95266.41;;;11.46;87.50
79612;BME280;69094;48.154;11.536;2023-04-29T05:26:26;95263.47;;;11.51;87.18
79612;BME280;69094;48.154;11.536;2023-04-29T05:28:51;95271.88;;;11.58;87.17
79612;BME280;69094;48.154;11.536;2023-04-29T05:31:17;95270.66;;;11.68;86.97
79612;BME280;69094;48.154;11.536;2023-04-29T05:33:42;95277.56;;;11.77;86.76
79612;BME280;69094;48.154;11.536;2023-04-29T05:36:07;95276.22;;;11.83;85.93
79612;BME280;69094;48.154;11.536;2023-04-29T05:38:33;95276.81;;;11.89;86.11
79612;BME280;69094;48.154;11.536;2023-04-29T05:40:58;95276.03;;;11.89;85.68
79612;BME280;69094;48.154;11.536;2023-04-29T05:43:24;95280.00;;;11.91;85.65
79612;BME280;69094;48.154;11.536;2023-04-29T05:45:49;95284.28;;;11.80;86.31
79612;BME280;69094;48.154;11.536;2023-04-29T05:48:15;95288.03;;;11.75;86.35
79612;BME280;69094;48.154;11.536;2023-04-29T05:50:40;95289.94;;;11.75;86.55
79612;BME280;69094;48.154;11.536;2023-04-29T05:53:06;95288.16;;;11.79;86.34
79612;BME280;69094;48.154;11.536;2023-04-29T05:55:31;95294.53;;;11.83;86.48
79612;BME280;69094;48.154;11.536;2023-04-29T05:57:57;95293.66;;;11.91;85.93
79612;BME280;69094;48.154;11.536;2023-04-29T06:00:22;95292.19;;;12.06;85.31
79612;BME280;69094;48.154;11.536;2023-04-29T06:02:48;95302.06;;;12.11;85.44
79612;BME280;69094;48.154;11.536;2023-04-29T06:05:13;95306.84;;;12.26;85.62
79612;BME280;69094;48.154;11.536;2023-04-29T06:07:40;95310.88;;;12.57;84.93
79612;BME280;69094;48.154;11.536;2023-04-29T06:10:07;95310.22;;;13.00;82.62
79612;BME280;69094;48.154;11.536;2023-04-29T06:12:32;95314.22;;;13.59;80.21
79612;BME280;69094;48.154;11.536;2023-04-29T06:14:58;95317.34;;;14.21;77.58
79612;BME280;69094;48.154;11.536;2023-04-29T06:17:23;95319.00;;;14.41;76.84
79612;BME280;69094;48.154;11.536;2023-04-29T06:19:48;95316.25;;;14.26;76.72
79612;BME280;69094;48.154;11.536;2023-04-29T06:22:14;95322.63;;;13.98;77.71
79612;BME280;69094;48.154;11.536;2023-04-29T06:24:39;95320.88;;;13.74;78.83
79612;BME280;69094;48.154;11.536;2023-04-29T06:27:05;95327.63;;;13.64;79.53
79612;BME280;69094;48.154;11.536;2023-04-29T06:29:30;95322.84;;;13.61;79.76
79612;BME280;69094;48.154;11.536;2023-04-29T06:31:56;95328.81;;;13.51;79.27
79612;BME280;69094;48.154;11.536;2023-04-29T06:34:21;95325.31;;;13.50;79.27
79612;BME280;69094;48.154;11.536;2023-04-29T06:36:46;95338.72;;;13.55;79.27
79612;BME280;69094;48.154;11.536;2023-04-29T06:39:11;95336.78;;;13.56;79.20
79612;BME280;69094;48.154;11.536;2023-04-29T06:41:37;95346.13;;;13.55;79.85
79612;BME280;69094;48.154;11.536;2023-04-29T06:44:02;95339.75;;;13.51;79.48
79612;BME280;69094;48.154;11.536;2023-04-29T06:46:28;95340.31;;;13.56;78.87
79612;BME280;69094;48.154;11.536;2023-04-29T06:48:53;95332.22;;;13.60;79.01
79612;BME280;69094;48.154;11.536;2023-04-29T06:51:19;95344.31;;;13.91;77.06
79612;BME280;69094;48.154;11.536;2023-04-29T06:53:44;95344.06;;;14.28;75.00
79612;BME280;69094;48.154;11.536;2023-04-29T06:56:11;95333.28;;;14.67;73.72
79612;BME280;69094;48.154;11.536;2023-04-29T06:58:36;95341.72;;;15.13;72.30
79612;BME280;69094;48.154;11.536;2023-04-29T07:01:02;95339.84;;;14.97;72.10
79612;BME280;69094;48.154;11.536;2023-04-29T07:03:29;95338.78;;;15.41;70.49
79612;BME280;69094;48.154;11.536;2023-04-29T07:05:54;95341.16;;;16.04;68.67
79612;BME280;69094;48.154;11.536;2023-04-29T07:08:19;95339.16;;;16.01;68.10
79612;BME280;69094;48.154;11.536;2023-04-29T07:10:55;95337.63;;;15.81;67.63
79612;BME280;69094;48.154;11.536;2023-04-29T07:13:21;95333.22;;;16.22;66.44
79612;BME280;69094;48.154;11.536;2023-04-29T07:15:47;95335.81;;;16.61;65.08
79612;BME280;69094;48.154;11.536;2023-04-29T07:18:12;95340.44;;;16.30;66.49
79612;BME280;69094;48.154;11.536;2023-04-29T07:20:37;95330.91;;;17.00;64.03
79612;BME280;69094;48.154;11.536;2023-04-29T07:23:03;95339.38;;;17.15;63.80
79612;BME280;69094;48.154;11.536;2023-04-29T07:25:28;95343.97;;;16.81;64.11
79612;BME280;69094;48.154;11.536;2023-04-29T07:27:55;95343.19;;;16.80;63.79
79612;BME280;69094;48.154;11.536;2023-04-29T07:30:21;95343.56;;;16.78;63.16
79612;BME280;69094;48.154;11.536;2023-04-29T07:32:47;95347.13;;;16.56;64.57
79612;BME280;69094;48.154;11.536;2023-04-29T07:35:16;95345.00;;;17.26;62.68
79612;BME280;69094;48.154;11.536;2023-04-29T07:37:42;95351.63;;;17.85;60.25
79612;BME280;69094;48.154;11.536;2023-04-29T07:40:08;95353.34;;;18.00;60.58
79612;BME280;69094;48.154;11.536;2023-04-29T07:42:33;95351.72;;;18.85;57.27
79612;BME280;69094;48.154;11.536;2023-04-29T07:44:59;95348.47;;;18.72;56.88
79612;BME280;69094;48.154;11.536;2023-04-29T07:47:24;95345.53;;;18.06;58.51
79612;BME280;69094;48.154;11.536;2023-04-29T07:49:50;95356.97;;;18.08;57.76
79612;BME280;69094;48.154;11.536;2023-04-29T07:52:17;95349.97;;;18.62;57.74
79612;BME280;69094;48.154;11.536;2023-04-29T07:54:42;95349.31;;;18.76;55.37
79612;BME280;69094;48.154;11.536;2023-04-29T07:57:08;95353.78;;;18.50;57.45
79612;BME280;69094;48.154;11.536;2023-04-29T07:59:33;95355.59;;;17.91;58.41
79612;BME280;69094;48.154;11.536;2023-04-29T08:01:59;95359.91;;;17.55;60.14
79612;BME280;69094;48.154;11.536;2023-04-29T08:04:24;95348.47;;;18.24;57.10
79612;BME280;69094;48.154;11.536;2023-04-29T08:06:49;95352.34;;;19.23;54.54
79612;BME280;69094;48.154;11.536;2023-04-29T08:09:15;95351.34;;;19.59;52.24
79612;BME280;69094;48.154;11.536;2023-04-29T08:11:41;95350.25;;;19.82;51.52
79612;BME280;69094;48.154;11.536;2023-04-29T08:14:07;95350.66;;;18.52;54.92
79612;BME280;69094;48.154;11.536;2023-04-29T08:16:33;95351.34;;;17.94;57.73
79612;BME280;69094;48.154;11.536;2023-04-29T08:18:58;95346.19;;;17.28;60.91
79612;BME280;69094;48.154;11.536;2023-04-29T08:21:23;95354.69;;;16.89;61.82
79612;BME280;69094;48.154;11.536;2023-04-29T08:23:49;95356.72;;;16.92;61.61
79612;BME280;69094;48.154;11.536;2023-04-29T08:26:14;95339.47;;;18.30;55.78
79612;BME280;69094;48.154;11.536;2023-04-29T08:28:40;95344.06;;;19.19;51.86
79612;BME280;69094;48.154;11.536;2023-04-29T08:31:05;95348.66;;;19.77;51.96
79612;BME280;69094;48.154;11.536;2023-04-29T08:33:37;95348.81;;;20.35;50.85
79612;BME280;69094;48.154;11.536;2023-04-29T08:36:03;95345.38;;;19.47;52.81
79612;BME280;69094;48.154;11.536;2023-04-29T08:38:29;95351.44;;;19.85;51.60
79612;BME280;69094;48.154;11.536;2023-04-29T08:40:55;95355.84;;;21.29;47.63
79612;BME280;69094;48.154;11.536;2023-04-29T08:43:21;95358.81;;;21.92;45.73
79612;BME280;69094;48.154;11.536;2023-04-29T08:45:50;95348.59;;;21.75;44.43
79612;BME280;69094;48.154;11.536;2023-04-29T08:48:16;95361.69;;;21.63;43.42
79612;BME280;69094;48.154;11.536;2023-04-29T08:50:42;95350.53;;;21.85;43.09
79612;BME280;69094;48.154;11.536;2023-04-29T08:53:10;95342.75;;;21.51;43.37
79612;BME280;69094;48.154;11.536;2023-04-29T08:55:40;95342.84;;;21.08;45.15
79612;BME280;69094;48.154;11.536;2023-04-29T08:58:06;95347.19;;;20.16;47.33
79612;BME280;69094;48.154;11.536;2023-04-29T09:00:33;95331.53;;;19.40;49.24
79612;BME280;69094;48.154;11.536;2023-04-29T09:03:00;95339.78;;;18.70;51.08
79612;BME280;69094;48.154;11.536;2023-04-29T09:05:29;95343.09;;;17.97;53.34
79612;BME280;69094;48.154;11.536;2023-04-29T09:07:56;95344.47;;;17.80;54.74
79612;BME280;69094;48.154;11.536;2023-04-29T09:10:24;95348.97;;;18.37;52.42
79612;BME280;69094;48.154;11.536;2023-04-29T09:12:49;95348.25;;;18.95;51.13
79612;BME280;69094;48.154;11.536;2023-04-29T09:15:15;95348.38;;;20.54;47.00
79612;BME280;69094;48.154;11.536;2023-04-29T09:17:47;95355.75;;;21.65;45.11
79612;BME280;69094;48.154;11.536;2023-04-29T09:22:47;95349.66;;;22.62;42.29
79612;BME280;69094;48.154;11.536;2023-04-29T09:25:14;95351.88;;;21.44;44.74
79612;BME280;69094;48.154;11.536;2023-04-29T09:27:39;95355.09;;;20.17;47.34
79612;BME280;69094;48.154;11.536;2023-04-29T09:30:05;95340.03;;;19.02;49.31
79612;BME280;69094;48.154;11.536;2023-04-29T09:32:31;95346.50;;;18.24;51.98
79612;BME280;69094;48.154;11.536;2023-04-29T09:34:56;95348.59;;;19.67;48.94
79612;BME280;69094;48.154;11.536;2023-04-29T09:37:23;95346.75;;;19.96;47.23
79612;BME280;69094;48.154;11.536;2023-04-29T09:39:50;95345.44;;;19.61;47.46
79612;BME280;69094;48.154;11.536;2023-04-29T09:42:15;95341.25;;;21.18;43.82
79612;BME280;69094;48.154;11.536;2023-04-29T09:44:41;95344.41;;;22.22;40.35
79612;BME280;69094;48.154;11.536;2023-04-29T09:47:08;95342.19;;;22.55;39.98
79612;BME280;69094;48.154;11.536;2023-04-29T09:49:38;95338.50;;;21.14;43.26
79612;BME280;69094;48.154;11.536;2023-04-29T09:52:06;95347.81;;;21.74;42.10
79612;BME280;69094;48.154;11.536;2023-04-29T09:54:33;95346.41;;;22.70;40.84
79612;BME280;69094;48.154;11.536;2023-04-29T09:57:01;95348.91;;;21.94;41.07
79612;BME280;69094;48.154;11.536;2023-04-29T09:59:30;95338.75;;;22.85;38.43
79612;BME280;69094;48.154;11.536;2023-04-29T10:01:56;95336.84;;;21.45;40.65
79612;BME280;69094;48.154;11.536;2023-04-29T10:04:24;95333.75;;;21.22;42.17
79612;BME280;69094;48.154;11.536;2023-04-29T10:06:51;95334.09;;;21.35;41.88
79612;BME280;69094;48.154;11.536;2023-04-29T10:09:17;95345.25;;;20.95;43.39
79612;BME280;69094;48.154;11.536;2023-04-29T10:11:44;95337.56;;;19.67;49.08
79612;BME280;69094;48.154;11.536;2023-04-29T10:14:13;95336.59;;;19.27;51.79
79612;BME280;69094;48.154;11.536;2023-04-29T10:17:01;95342.47;;;18.63;52.74
79612;BME280;69094;48.154;11.536;2023-04-29T10:21:57;95345.84;;;17.63;56.29
79612;BME280;69094;48.154;11.536;2023-04-29T10:24:24;95346.69;;;17.68;55.40
79612;BME280;69094;48.154;11.536;2023-04-29T10:26:51;95335.47;;;18.24;54.93
79612;BME280;69094;48.154;11.536;2023-04-29T10:29:18;95346.97;;;17.93;54.97
79612;BME280;69094;48.154;11.536;2023-04-29T10:31:45;95345.78;;;19.45;52.81
79612;BME280;69094;48.154;11.536;2023-04-29T10:34:13;95337.28;;;19.93;49.13
79612;BME280;69094;48.154;11.536;2023-04-29T10:36:40;95345.91;;;21.53;46.07
79612;BME280;69094;48.154;11.536;2023-04-29T10:39:10;95341.97;;;22.80;41.14
79612;BME280;69094;48.154;11.536;2023-04-29T10:41:44;95341.41;;;23.41;38.15
79612;BME280;69094;48.154;11.536;2023-04-29T10:44:12;95335.53;;;24.00;36.96
79612;BME280;69094;48.154;11.536;2023-04-29T10:46:37;95331.75;;;24.41;36.59
79612;BME280;69094;48.154;11.536;2023-04-29T10:49:03;95338.28;;;22.45;40.56
79612;BME280;69094;48.154;11.536;2023-04-29T10:51:41;95344.81;;;21.11;42.74
79612;BME280;69094;48.154;11.536;2023-04-29T10:59:03;95334.56;;;21.04;43.96
79612;BME280;69094;48.154;11.536;2023-04-29T11:01:49;95336.47;;;21.29;42.96
79612;BME280;69094;48.154;11.536;2023-04-29T11:04:16;95329.84;;;20.87;44.63
79612;BME280;69094;48.154;11.536;2023-04-29T11:06:55;95325.44;;;21.18;44.32
79612;BME280;69094;48.154;11.536;2023-04-29T11:09:26;95337.94;;;22.40;40.36
79612;BME280;69094;48.154;11.536;2023-04-29T11:14:33;95323.97;;;24.05;35.60
79612;BME280;69094;48.154;11.536;2023-04-29T11:17:22;95318.91;;;24.55;34.06
79612;BME280;69094;48.154;11.536;2023-04-29T11:19:51;95324.38;;;24.82;34.66
79612;BME280;69094;48.154;11.536;2023-04-29T11:22:29;95323.53;;;24.07;35.31
79612;BME280;69094;48.154;11.536;2023-04-29T11:24:58;95330.66;;;23.05;37.52
79612;BME280;69094;48.154;11.536;2023-04-29T11:27:37;95332.72;;;24.31;34.50
79612;BME280;69094;48.154;11.536;2023-04-29T11:30:05;95326.63;;;24.67;33.58
79612;BME280;69094;48.154;11.536;2023-04-29T11:32:39;95330.22;;;23.48;35.89
79612;BME280;69094;48.154;11.536;2023-04-29T11:35:15;95341.63;;;22.19;38.36
79612;BME280;69094;48.154;11.536;2023-04-29T11:37:42;95338.03;;;23.57;34.58
79612;BME280;69094;48.154;11.536;2023-04-29T11:40:09;95338.53;;;23.82;35.14
79612;BME280;69094;48.154;11.536;2023-04-29T11:42:40;95331.34;;;24.70;32.55
79612;BME280;69094;48.154;11.536;2023-04-29T11:45:06;95341.81;;;25.09;32.40
79612;BME280;69094;48.154;11.536;2023-04-29T11:47:32;95347.75;;;25.55;30.35
79612;BME280;69094;48.154;11.536;2023-04-29T11:50:04;95350.75;;;25.44;30.46
79612;BME280;69094;48.154;11.536;2023-04-29T11:52:30;95338.34;;;25.89;29.48
79612;BME280;69094;48.154;11.536;2023-04-29T11:54:57;95341.16;;;25.45;29.72
79612;BME280;69094;48.154;11.536;2023-04-29T11:57:23;95344.75;;;23.59;32.83
79612;BME280;69094;48.154;11.536;2023-04-29T11:59:49;95354.69;;;22.18;36.18
79612;BME280;69094;48.154;11.536;2023-04-29T12:02:15;95351.31;;;21.85;39.30
79612;BME280;69094;48.154;11.536;2023-04-29T12:04:46;95343.69;;;22.63;36.56
79612;BME280;69094;48.154;11.536;2023-04-29T12:07:15;95350.19;;;23.36;34.44
79612;BME280;69094;48.154;11.536;2023-04-29T12:09:44;95343.28;;;22.68;35.21
79612;BME280;69094;48.154;11.536;2023-04-29T12:12:10;95345.72;;;22.59;36.05
79612;BME280;69094;48.154;11.536;2023-04-29T12:14:36;95340.28;;;24.00;32.50
79612;BME280;69094;48.154;11.536;2023-04-29T12:17:03;95340.38;;;23.62;32.83
79612;BME280;69094;48.154;11.536;2023-04-29T12:19:28;95346.13;;;22.57;34.85
79612;BME280;69094;48.154;11.536;2023-04-29T12:22:01;95345.84;;;21.67;35.63
79612;BME280;69094;48.154;11.536;2023-04-29T12:24:27;95347.59;;;21.00;38.05
79612;BME280;69094;48.154;11.536;2023-04-29T12:26:54;95346.59;;;21.79;35.72
79612;BME280;69094;48.154;11.536;2023-04-29T12:29:20;95341.06;;;22.94;33.22
79612;BME280;69094;48.154;11.536;2023-04-29T12:31:48;95340.78;;;23.60;32.48
79612;BME280;69094;48.154;11.536;2023-04-29T12:34:13;95341.22;;;23.90;32.70
79612;BME280;69094;48.154;11.536;2023-04-29T12:36:42;95351.31;;;24.38;33.11
79612;BME280;69094;48.154;11.536;2023-04-29T12:39:09;95349.50;;;24.24;32.40
79612;BME280;69094;48.154;11.536;2023-04-29T12:41:36;95339.97;;;23.94;32.93
79612;BME280;69094;48.154;11.536;2023-04-29T12:44:02;95345.81;;;24.03;33.25
79612;BME280;69094;48.154;11.536;2023-04-29T12:46:33;95357.41;;;23.98;31.95
79612;BME280;69094;48.154;11.536;2023-04-29T12:49:01;95351.78;;;24.60;30.89
79612;BME280;69094;48.154;11.536;2023-04-29T12:51:27;95337.41;;;23.46;33.93
79612;BME280;69094;48.154;11.536;2023-04-29T12:53:52;95352.22;;;22.87;34.52
79612;BME280;69094;48.154;11.536;2023-04-29T12:56:17;95357.16;;;23.51;32.44
79612;BME280;69094;48.154;11.536;2023-04-29T12:58:43;95357.94;;;24.17;31.53
79612;BME280;69094;48.154;11.536;2023-04-29T13:01:08;95346.84;;;25.18;30.37
79612;BME280;69094;48.154;11.536;2023-04-29T13:03:33;95356.50;;;24.86;29.80
79612;BME280;69094;48.154;11.536;2023-04-29T13:06:00;95360.38;;;23.84;31.04
79612;BME280;69094;48.154;11.536;2023-04-29T13:08:26;95349.47;;;23.97;30.29